Time;durP1;ratioP1;P1;durP2;ratioP2;P2;SDS_P1;SDS_P2;PMS_P1;PMS_P2;Temp;Humidity;BMP_temperature;BMP_pressure;BME280_temperature;BME280_humidity;BME280_pressure;Samples;Min_cycle;Max_cycle;Signal;HPM_P1;HPM_P2
2022/04/20 00:01:23;;;;;;;10.20;4.70;;;20.40;58.70;;;;;;5012491;28;87020;-85
2022/04/20 00:03:49;;;;;;;9.27;4.55;;;20.40;58.80;;;;;;5012420;28;86912;-92
2022/04/20 00:06:15;;;;;;;10.38;4.10;;;20.40;58.80;;;;;;5010213;28;87883;-87
2022/04/20 00:08:41;;;;;;;9.77;4.32;;;20.40;58.80;;;;;;5010679;28;86945;-92
2022/04/20 00:11:07;;;;;;;9.27;4.63;;;20.40;58.80;;;;;;5012890;28;87437;-88
2022/04/20 00:13:34;;;;;;;11.25;4.28;;;20.40;58.80;;;;;;5011240;28;87452;-92
2022/04/20 00:16:07;;;;;;;9.07;3.97;;;20.40;58.80;;;;;;5011896;28;87492;-92
2022/04/20 00:18:32;;;;;;;7.65;4.03;;;20.40;58.80;;;;;;5027565;28;89370;-87
2022/04/20 00:20:58;;;;;;;11.18;4.40;;;20.40;59.00;;;;;;5011865;28;87456;-93
2022/04/20 00:23:23;;;;;;;10.63;4.82;;;20.40;58.90;;;;;;5011593;28;87170;-93
2022/04/20 00:25:49;;;;;;;12.27;5.00;;;20.40;58.90;;;;;;5011977;28;87397;-88
2022/04/20 00:28:15;;;;;;;11.23;4.57;;;20.40;59.00;;;;;;5012242;28;87256;-92
2022/04/20 00:30:40;;;;;;;12.50;4.15;;;20.40;59.00;;;;;;5010505;28;88964;-92
2022/04/20 00:33:06;;;;;;;9.60;4.55;;;20.40;59.00;;;;;;5009830;28;89018;-88
2022/04/20 00:35:32;;;;;;;8.27;4.00;;;20.40;58.80;;;;;;5010685;28;87294;-85
2022/04/20 00:37:58;;;;;;;10.48;5.00;;;20.40;58.80;;;;;;5011519;28;87504;-93
2022/04/20 00:40:24;;;;;;;7.63;4.13;;;20.40;59.50;;;;;;5010188;28;87601;-94
2022/04/20 00:42:50;;;;;;;13.32;4.50;;;20.30;58.80;;;;;;5010498;28;87815;-88
2022/04/20 00:45:15;;;;;;;8.55;4.20;;;20.40;58.80;;;;;;5009221;28;87093;-86
2022/04/20 00:47:43;;;;;;;10.68;5.05;;;20.40;58.80;;;;;;5012761;28;86444;-89
2022/04/20 00:50:09;;;;;;;9.18;4.57;;;20.30;59.30;;;;;;5010458;28;88694;-92
2022/04/20 00:52:35;;;;;;;7.63;3.67;;;20.30;58.80;;;;;;5009414;28;87295;-92
2022/04/20 00:55:01;;;;;;;6.75;3.90;;;20.40;58.70;;;;;;4999980;28;88444;-85
2022/04/20 00:57:27;;;;;;;7.60;3.88;;;20.30;58.90;;;;;;5009601;28;87341;-91
2022/04/20 00:59:55;;;;;;;8.00;3.97;;;20.30;58.70;;;;;;5008060;28;87406;-87
2022/04/20 01:02:30;;;;;;;8.20;3.78;;;20.30;58.80;;;;;;5009805;28;88550;-88
2022/04/20 01:04:56;;;;;;;8.82;4.07;;;20.30;58.60;;;;;;5010190;28;87853;-93
2022/04/20 01:07:22;;;;;;;7.40;3.72;;;20.30;58.80;;;;;;5010895;28;87325;-93
2022/04/20 01:09:48;;;;;;;9.27;3.72;;;20.30;58.70;;;;;;5009308;28;87842;-90
2022/04/20 01:12:15;;;;;;;7.35;3.80;;;20.30;58.90;;;;;;5010631;28;86180;-90
2022/04/20 01:14:42;;;;;;;9.15;4.28;;;20.30;58.80;;;;;;5010166;28;87668;-89
2022/04/20 01:17:07;;;;;;;8.52;4.18;;;20.30;58.80;;;;;;5006643;28;89251;-92
2022/04/20 01:19:40;;;;;;;7.28;3.88;;;20.30;58.80;;;;;;5007636;28;88994;-92
2022/04/20 01:22:08;;;;;;;8.90;3.88;;;20.30;58.70;;;;;;5008754;28;87870;-88
2022/04/20 01:24:35;;;;;;;9.85;3.60;;;20.30;58.90;;;;;;5010199;28;86923;-91
2022/04/20 01:27:02;;;;;;;9.43;3.97;;;20.30;58.80;;;;;;5009583;28;87579;-91
2022/04/20 01:29:29;;;;;;;8.40;4.15;;;20.30;58.70;;;;;;5009643;28;90093;-84
2022/04/20 01:31:55;;;;;;;9.00;3.50;;;20.30;58.80;;;;;;5024574;28;87212;-91
2022/04/20 01:34:33;;;;;;;8.18;3.58;;;20.30;58.70;;;;;;5012342;28;87949;-86
2022/04/20 01:36:59;;;;;;;8.65;3.40;;;20.30;58.70;;;;;;5010727;28;87204;-89
2022/04/20 01:39:24;;;;;;;8.40;4.07;;;20.30;58.70;;;;;;4998654;28;90159;-92
2022/04/20 01:41:50;;;;;;;8.73;3.80;;;20.30;58.80;;;;;;5024270;28;87855;-89
2022/04/20 01:44:16;;;;;;;7.25;3.45;;;20.20;58.80;;;;;;5007998;28;88102;-86
2022/04/20 01:46:41;;;;;;;7.40;3.33;;;20.30;58.80;;;;;;5007683;28;87614;-94
2022/04/20 01:49:07;;;;;;;9.88;4.03;;;20.30;58.70;;;;;;5007693;28;87435;-92
2022/04/20 01:51:50;;;;;;;6.65;3.50;;;20.30;58.50;;;;;;5015056;28;88813;-87
2022/04/20 01:54:16;;;;;;;8.77;3.75;;;20.20;58.60;;;;;;5009298;28;87659;-92
2022/04/20 01:56:42;;;;;;;8.15;3.50;;;20.20;58.60;;;;;;5008686;28;86981;-88
2022/04/20 01:59:09;;;;;;;6.40;3.33;;;20.30;58.80;;;;;;5003587;28;87864;-89
2022/04/20 02:04:19;;;;;;;7.97;4.10;;;20.30;58.70;;;;;;5006696;28;87417;-85
2022/04/20 02:06:45;;;;;;;7.13;3.45;;;20.20;58.60;;;;;;5007516;28;88005;-88
2022/04/20 02:09:11;;;;;;;7.65;3.60;;;20.20;58.70;;;;;;5006690;28;89012;-88
2022/04/20 02:11:38;;;;;;;7.28;3.53;;;20.20;58.70;;;;;;5003287;28;87581;-85
2022/04/20 02:14:03;;;;;;;7.28;3.90;;;20.20;58.70;;;;;;5000942;28;87286;-83
2022/04/20 02:16:29;;;;;;;7.80;3.80;;;20.20;58.50;;;;;;5003037;28;87297;-82
2022/04/20 02:18:54;;;;;;;6.97;3.75;;;20.20;58.70;;;;;;5002660;28;87770;-83
2022/04/20 02:21:20;;;;;;;6.47;3.15;;;20.20;58.80;;;;;;5001294;28;87627;-85
2022/04/20 02:23:45;;;;;;;8.48;4.18;;;20.20;58.60;;;;;;5000270;28;87440;-83
2022/04/20 02:26:11;;;;;;;6.57;3.25;;;20.20;58.50;;;;;;5007176;28;86726;-83
2022/04/20 02:28:37;;;;;;;7.20;3.22;;;20.20;58.70;;;;;;4998888;28;87565;-82
2022/04/20 02:31:02;;;;;;;5.93;3.15;;;20.20;58.80;;;;;;5000740;28;87421;-83
2022/04/20 02:33:28;;;;;;;5.13;3.10;;;20.20;58.70;;;;;;5005066;28;88414;-84
2022/04/20 02:35:54;;;;;;;6.65;3.10;;;20.20;59.30;;;;;;5005618;28;87657;-83
2022/04/20 02:38:20;;;;;;;7.30;3.55;;;20.20;58.70;;;;;;5000868;28;87967;-86
2022/04/20 02:40:47;;;;;;;6.35;3.47;;;20.20;58.60;;;;;;5020096;28;87755;-83
2022/04/20 02:43:12;;;;;;;5.32;3.53;;;20.20;58.60;;;;;;5006975;28;87618;-83
2022/04/20 02:45:47;;;;;;;6.82;3.15;;;20.20;58.60;;;;;;5005614;28;87445;-83
2022/04/20 02:48:12;;;;;;;5.45;2.90;;;20.20;58.60;;;;;;5006014;28;88231;-86
2022/04/20 02:50:38;;;;;;;4.97;3.10;;;20.20;58.60;;;;;;5005956;28;87376;-86
2022/04/20 02:53:04;;;;;;;6.20;3.50;;;20.20;58.70;;;;;;5007970;28;87001;-83
2022/04/20 02:55:29;;;;;;;6.93;3.42;;;20.10;58.70;;;;;;5008327;28;86898;-84
2022/04/20 02:57:55;;;;;;;6.88;3.40;;;20.20;58.60;;;;;;5004812;28;88743;-84
2022/04/20 03:00:21;;;;;;;7.70;3.30;;;20.20;58.70;;;;;;5008053;28;89182;-85
2022/04/20 03:02:46;;;;;;;7.30;3.33;;;20.10;58.50;;;;;;5007473;28;86973;-85
2022/04/20 03:05:12;;;;;;;8.50;3.45;;;20.10;58.70;;;;;;5012689;28;87168;-87
2022/04/20 03:07:38;;;;;;;7.03;3.47;;;20.20;58.70;;;;;;5012038;28;87785;-84
2022/04/20 03:10:04;;;;;;;5.80;2.67;;;20.20;58.70;;;;;;5011260;28;87766;-94
2022/04/20 03:12:29;;;;;;;6.53;3.40;;;20.10;58.70;;;;;;5011527;28;87786;-92
2022/04/20 03:14:57;;;;;;;5.30;2.47;;;20.10;58.50;;;;;;5009887;28;86366;-93
2022/04/20 03:17:23;;;;;;;5.65;2.90;;;20.10;58.60;;;;;;5011946;28;88500;-90
2022/04/20 03:19:48;;;;;;;5.10;2.78;;;20.10;58.70;;;;;;5012111;28;87672;-87
2022/04/20 03:22:14;;;;;;;6.38;3.45;;;20.10;58.60;;;;;;5012856;28;88239;-94
2022/04/20 03:24:39;;;;;;;7.43;2.90;;;20.10;58.50;;;;;;5011775;28;88724;-87
2022/04/20 03:27:05;;;;;;;6.93;3.17;;;20.10;58.60;;;;;;5013584;28;87750;-92
2022/04/20 03:29:31;;;;;;;5.43;2.70;;;20.10;58.40;;;;;;5023645;28;89891;-94
2022/04/20 03:31:57;;;;;;;5.10;2.83;;;20.10;58.50;;;;;;5012153;28;87380;-93
2022/04/20 03:34:30;;;;;;;6.57;3.00;;;20.10;58.50;;;;;;5027984;28;88300;-90
2022/04/20 03:36:56;;;;;;;5.22;2.80;;;20.10;58.60;;;;;;5005505;28;88045;-85
2022/04/20 03:39:22;;;;;;;5.38;3.05;;;20.10;58.60;;;;;;5006454;28;87515;-84
2022/04/20 03:41:48;;;;;;;5.03;2.70;;;20.10;58.60;;;;;;5007403;28;88431;-84
2022/04/20 03:44:13;;;;;;;5.30;2.90;;;20.10;58.60;;;;;;5004953;28;87019;-88
2022/04/20 03:46:39;;;;;;;6.38;3.38;;;20.10;58.60;;;;;;5003447;28;88901;-83
2022/04/20 03:49:04;;;;;;;6.13;3.10;;;20.10;58.50;;;;;;5006849;28;88191;-88
2022/04/20 03:51:30;;;;;;;4.68;2.92;;;20.10;58.50;;;;;;5007823;28;87463;-83
2022/04/20 03:53:56;;;;;;;5.15;2.75;;;20.10;58.50;;;;;;5005242;28;87466;-83
2022/04/20 03:56:21;;;;;;;6.43;3.05;;;20.10;58.50;;;;;;5008838;28;87007;-88
2022/04/20 03:58:47;;;;;;;7.20;3.00;;;20.10;58.60;;;;;;5008676;28;86839;-89
2022/04/20 04:01:13;;;;;;;4.20;2.47;;;20.00;58.50;;;;;;5009199;28;87840;-84
2022/04/20 04:03:39;;;;;;;5.15;2.80;;;20.10;58.40;;;;;;5006766;28;87446;-89
2022/04/20 04:06:04;;;;;;;6.05;2.63;;;20.00;58.50;;;;;;5007271;28;87262;-84
2022/04/20 04:08:30;;;;;;;6.47;3.22;;;20.00;58.50;;;;;;5008939;28;87501;-88
2022/04/20 04:10:56;;;;;;;5.43;3.00;;;20.00;58.60;;;;;;5007667;28;87860;-84
2022/04/20 04:13:22;;;;;;;5.38;2.97;;;20.00;58.30;;;;;;5004504;28;87130;-86
2022/04/20 04:15:49;;;;;;;5.55;2.80;;;20.00;58.60;;;;;;5005137;28;87644;-87
2022/04/20 04:18:16;;;;;;;4.38;2.72;;;20.00;58.50;;;;;;4995973;28;89038;-89
2022/04/20 04:20:43;;;;;;;6.20;2.70;;;20.00;58.50;;;;;;5008270;28;87656;-85
2022/04/20 04:23:09;;;;;;;5.55;2.60;;;20.00;58.40;;;;;;5007109;28;87480;-84
2022/04/20 04:25:35;;;;;;;5.65;2.70;;;20.00;58.60;;;;;;5007870;28;88197;-86
2022/04/20 04:28:01;;;;;;;5.32;2.47;;;20.00;58.60;;;;;;5007394;28;87760;-88
2022/04/20 04:30:27;;;;;;;4.47;2.65;;;20.00;58.50;;;;;;5010268;28;87485;-84
2022/04/20 04:32:53;;;;;;;5.85;2.70;;;20.00;58.50;;;;;;5008683;28;86891;-87
2022/04/20 04:35:19;;;;;;;4.15;2.63;;;20.00;58.60;;;;;;5006588;28;88205;-85
2022/04/20 04:37:45;;;;;;;4.78;2.72;;;20.00;58.50;;;;;;5009023;28;89297;-88
2022/04/20 04:40:11;;;;;;;6.15;2.75;;;20.00;58.50;;;;;;5009038;28;87780;-91
2022/04/20 04:42:37;;;;;;;3.90;2.55;;;20.00;58.60;;;;;;5011162;28;87783;-93
2022/04/20 04:50:33;;;;;;;4.95;2.80;;;20.00;58.40;;;;;;5008658;28;86957;-89
2022/04/20 04:52:59;;;;;;;5.05;2.63;;;20.00;58.50;;;;;;5009146;28;86873;-92
2022/04/20 04:55:24;;;;;;;4.90;2.65;;;20.00;58.30;;;;;;5009064;28;88053;-93
2022/04/20 04:57:50;;;;;;;4.55;2.88;;;20.00;58.40;;;;;;5009413;28;88048;-91
2022/04/20 05:00:16;;;;;;;6.20;2.53;;;20.00;58.40;;;;;;5011085;28;88252;-91
2022/04/20 05:02:42;;;;;;;6.47;2.88;;;20.00;58.30;;;;;;5008540;28;87428;-91
2022/04/20 05:05:08;;;;;;;4.68;2.38;;;20.00;58.40;;;;;;5000900;28;90649;-87
2022/04/20 05:07:33;;;;;;;5.22;2.83;;;20.00;58.60;;;;;;5009440;28;87451;-92
2022/04/20 05:09:59;;;;;;;4.90;2.40;;;20.00;58.50;;;;;;5006461;28;87352;-90
2022/04/20 05:12:25;;;;;;;5.72;2.50;;;20.00;58.70;;;;;;5010453;28;87449;-89
2022/04/20 05:14:50;;;;;;;4.05;2.17;;;20.00;58.50;;;;;;5011295;28;88110;-92
2022/04/20 05:17:16;;;;;;;4.63;2.65;;;20.00;58.90;;;;;;5007622;28;87020;-89
2022/04/20 05:19:41;;;;;;;4.80;2.50;;;20.00;58.90;;;;;;4998038;28;87071;-86
2022/04/20 05:22:07;;;;;;;3.70;2.55;;;20.00;59.00;;;;;;5009009;28;87688;-85
2022/04/20 05:24:35;;;;;;;4.15;2.45;;;20.00;58.90;;;;;;5007992;28;87875;-92
2022/04/20 05:27:02;;;;;;;3.87;2.40;;;20.00;59.00;;;;;;5008743;28;87463;-91
2022/04/20 05:29:27;;;;;;;3.42;2.13;;;20.10;59.00;;;;;;5023835;28;87001;-92
2022/04/20 05:31:55;;;;;;;4.38;2.67;;;20.10;59.00;;;;;;5009258;28;87252;-93
2022/04/20 05:34:26;;;;;;;8.27;2.25;;;20.10;59.00;;;;;;5008541;28;87327;-90
2022/04/20 05:42:20;;;;;;;4.50;2.13;;;20.10;58.70;;;;;;5009475;28;86811;-91
2022/04/20 05:44:47;;;;;;;3.92;2.50;;;20.20;58.90;;;;;;5008010;28;87287;-85
2022/04/20 05:47:12;;;;;;;3.80;2.40;;;20.20;58.90;;;;;;5009641;28;87823;-83
2022/04/20 05:49:38;;;;;;;3.53;2.33;;;20.20;58.80;;;;;;5004241;28;88126;-92
2022/04/20 05:52:12;;;;;;;2.33;1.55;;;20.20;59.20;;;;;;5024755;28;89401;-87
2022/04/20 05:54:38;;;;;;;3.80;2.05;;;20.20;59.30;;;;;;5008631;28;87395;-94
2022/04/20 05:57:04;;;;;;;3.47;2.20;;;20.20;58.40;;;;;;5001519;28;87659;-89
2022/04/20 05:59:29;;;;;;;4.63;2.22;;;20.20;58.00;;;;;;5005052;28;87101;-89
2022/04/20 06:01:55;;;;;;;8.75;2.83;;;20.20;58.30;;;;;;5005392;28;87732;-94
2022/04/20 06:04:21;;;;;;;5.18;2.60;;;20.20;57.70;;;;;;5009453;28;87978;-87
2022/04/20 06:06:48;;;;;;;5.10;2.30;;;20.20;57.70;;;;;;5011372;28;87281;-92
2022/04/20 06:09:14;;;;;;;5.32;1.98;;;20.20;57.50;;;;;;5010915;28;87344;-93
2022/04/20 06:11:40;;;;;;;3.13;2.10;;;20.20;57.50;;;;;;5010077;28;87139;-91
2022/04/20 06:14:06;;;;;;;6.43;2.45;;;20.20;57.70;;;;;;5006128;28;88821;-93
2022/04/20 06:16:32;;;;;;;4.82;2.45;;;20.20;57.50;;;;;;5007106;28;89856;-92
2022/04/20 06:18:57;;;;;;;7.82;2.55;;;20.20;57.50;;;;;;5007273;28;87295;-90
2022/04/20 06:21:23;;;;;;;8.77;2.03;;;20.30;57.50;;;;;;5004867;28;87224;-88
2022/04/20 06:23:49;;;;;;;8.65;2.45;;;20.30;57.90;;;;;;5007894;28;87566;-93
2022/04/20 06:26:15;;;;;;;9.02;2.20;;;20.30;58.20;;;;;;5011963;27;87332;-93
2022/04/20 06:28:41;;;;;;;6.65;2.50;;;20.30;58.10;;;;;;5012107;28;88295;-90
2022/04/20 06:31:06;;;;;;;9.05;2.58;;;20.30;58.40;;;;;;5010645;28;86249;-87
2022/04/20 06:33:33;;;;;;;8.48;2.55;;;20.20;58.30;;;;;;5011607;28;87443;-91
2022/04/20 06:36:00;;;;;;;8.23;2.30;;;20.20;58.30;;;;;;5001805;28;89844;-92
2022/04/20 06:38:33;;;;;;;6.05;2.70;;;20.30;58.10;;;;;;5010539;28;87852;-90
2022/04/20 06:40:58;;;;;;;8.45;2.50;;;20.30;58.00;;;;;;5011665;28;87009;-94
2022/04/20 06:43:25;;;;;;;6.25;2.20;;;20.30;57.70;;;;;;5013022;28;87743;-86
2022/04/20 06:45:50;;;;;;;6.93;2.40;;;20.30;57.70;;;;;;5002026;28;87755;-88
2022/04/20 06:48:16;;;;;;;7.30;2.40;;;20.30;57.00;;;;;;5020732;28;87815;-88
2022/04/20 06:50:43;;;;;;;6.22;2.40;;;20.30;56.70;;;;;;5020962;28;89010;-91
2022/04/20 06:58:45;;;;;;;6.82;2.40;;;20.30;55.70;;;;;;5004664;28;87468;-93
2022/04/20 07:01:14;;;;;;;5.95;2.13;;;20.20;55.70;;;;;;5006067;28;86871;-90
2022/04/20 07:03:40;;;;;;;4.53;2.33;;;20.30;55.90;;;;;;4956535;28;90541;-88
2022/04/20 07:06:06;;;;;;;4.32;2.25;;;20.20;55.90;;;;;;4991510;28;91475;-94
2022/04/20 07:08:33;;;;;;;9.90;2.38;;;20.30;56.00;;;;;;5005069;28;87970;-92
2022/04/20 07:10:59;;;;;;;4.18;2.00;;;20.30;56.20;;;;;;5004759;28;87761;-89
2022/04/20 07:13:25;;;;;;;5.18;1.88;;;20.20;56.10;;;;;;5005333;28;87543;-92
2022/04/20 07:15:51;;;;;;;2.92;1.52;;;20.30;56.40;;;;;;5004808;28;88352;-86
2022/04/20 07:18:16;;;;;;;4.63;1.70;;;20.30;57.90;;;;;;5003552;28;86877;-90
2022/04/20 07:20:42;;;;;;;6.35;2.25;;;20.30;56.90;;;;;;5004173;28;86517;-87
2022/04/20 07:23:09;;;;;;;6.38;2.40;;;20.30;56.50;;;;;;5006624;28;87402;-88
2022/04/20 07:25:36;;;;;;;5.22;2.60;;;20.30;56.80;;;;;;5025082;28;90287;-91
2022/04/20 07:28:03;;;;;;;10.27;2.58;;;20.30;56.90;;;;;;5011253;28;87835;-86
2022/04/20 07:30:28;;;;;;;5.20;2.50;;;20.30;57.20;;;;;;5022778;28;89736;-92
2022/04/20 07:32:54;;;;;;;7.30;2.40;;;20.30;56.90;;;;;;5009788;28;88159;-89
2022/04/20 07:35:19;;;;;;;9.18;2.85;;;20.30;56.70;;;;;;5008791;28;87359;-91
2022/04/20 07:37:45;;;;;;;8.63;3.00;;;20.40;57.30;;;;;;5023440;28;88197;-89
2022/04/20 07:40:31;;;;;;;38.88;4.45;;;20.40;57.00;;;;;;4998248;28;87855;-86
2022/04/20 07:42:57;;;;;;;11.07;2.83;;;20.40;57.30;;;;;;5015233;28;90909;-89
2022/04/20 07:45:27;;;;;;;13.13;4.00;;;20.40;58.00;;;;;;5008240;28;87071;-89
2022/04/20 07:47:54;;;;;;;9.63;3.20;;;20.40;56.90;;;;;;5004979;28;87074;-87
2022/04/20 07:50:24;;;;;;;8.38;3.13;;;20.50;58.20;;;;;;5007291;28;87878;-91
2022/04/20 07:52:54;;;;;;;10.20;2.92;;;20.40;57.90;;;;;;5004793;28;88479;-88
2022/04/20 07:55:30;;;;;;;7.38;2.80;;;20.40;57.90;;;;;;5004849;28;87964;-86
2022/04/20 07:57:58;;;;;;;9.32;3.05;;;20.40;58.20;;;;;;5011029;28;86964;-93
2022/04/20 08:00:32;;;;;;;13.13;3.60;;;20.40;58.50;;;;;;5017133;28;89458;-92
2022/04/20 08:03:07;;;;;;;9.43;3.58;;;20.40;58.60;;;;;;5006793;28;87260;-92
2022/04/20 08:05:33;;;;;;;9.88;3.80;;;20.40;58.30;;;;;;5009990;28;87532;-91
2022/04/20 08:08:00;;;;;;;12.02;3.75;;;20.40;58.20;;;;;;5008007;28;87317;-92
2022/04/20 08:10:25;;;;;;;9.27;3.22;;;20.40;58.00;;;;;;5011422;28;87229;-89
2022/04/20 08:12:51;;;;;;;10.20;3.25;;;20.40;58.10;;;;;;5015728;28;87741;-92
2022/04/20 08:15:16;;;;;;;8.85;2.97;;;20.40;58.10;;;;;;5008317;28;87917;-91
2022/04/20 08:17:42;;;;;;;9.93;3.45;;;20.40;58.00;;;;;;5008168;28;88052;-90
2022/04/20 08:20:09;;;;;;;7.80;3.20;;;20.30;57.80;;;;;;5008568;28;87742;-89
2022/04/20 08:22:44;;;;;;;10.07;3.50;;;20.40;57.50;;;;;;5005582;28;87231;-93
2022/04/20 08:25:12;;;;;;;10.85;3.72;;;20.40;57.50;;;;;;5008226;28;87059;-88
2022/04/20 08:27:38;;;;;;;16.02;4.55;;;20.40;57.20;;;;;;5006320;28;87491;-89
2022/04/20 08:30:12;;;;;;;13.98;4.03;;;20.40;57.10;;;;;;5008179;28;87742;-89
2022/04/20 08:32:38;;;;;;;19.67;4.75;;;20.40;57.10;;;;;;5009877;28;87924;-90
2022/04/20 08:35:04;;;;;;;19.83;4.07;;;20.40;56.50;;;;;;5007842;28;87343;-92
2022/04/20 08:37:30;;;;;;;16.85;3.78;;;20.40;56.30;;;;;;5008169;28;86982;-88
2022/04/20 08:39:56;;;;;;;15.35;4.22;;;20.40;56.20;;;;;;5003851;28;88381;-89
2022/04/20 08:42:22;;;;;;;10.30;3.78;;;20.40;56.10;;;;;;5020097;28;91394;-88
2022/04/20 08:44:49;;;;;;;18.05;4.85;;;20.40;56.10;;;;;;5006075;28;88655;-90
2022/04/20 08:47:21;;;;;;;12.63;4.03;;;20.40;56.10;;;;;;5022854;28;87567;-92
2022/04/20 08:49:51;;;;;;;13.73;3.60;;;20.40;56.00;;;;;;5006803;28;87516;-86
2022/04/20 08:55:08;;;;;;;13.93;4.40;;;20.40;55.00;;;;;;5006045;28;87386;-86
2022/04/20 08:57:35;;;;;;;11.57;3.83;;;20.40;55.90;;;;;;5003975;28;87286;-90
2022/04/20 09:00:04;;;;;;;11.30;3.65;;;20.40;55.90;;;;;;5004514;28;86659;-86
2022/04/20 09:02:30;;;;;;;14.10;4.05;;;20.40;55.70;;;;;;5004620;28;87539;-88
2022/04/20 09:04:56;;;;;;;16.25;4.60;;;20.40;55.70;;;;;;5005225;28;88366;-87
2022/04/20 09:07:24;;;;;;;11.65;4.13;;;20.40;55.20;;;;;;5002247;28;88114;-86
2022/04/20 09:09:50;;;;;;;13.90;4.20;;;20.40;55.20;;;;;;5023173;28;87618;-87
2022/04/20 09:12:17;;;;;;;14.55;3.65;;;20.40;55.20;;;;;;5017185;28;90424;-89
2022/04/20 09:14:48;;;;;;;13.10;4.05;;;20.40;55.30;;;;;;5006856;28;87799;-85
2022/04/20 09:17:19;;;;;;;19.63;4.55;;;20.40;55.20;;;;;;5006232;28;87316;-83
2022/04/20 09:19:47;;;;;;;13.63;4.72;;;20.40;55.10;;;;;;5005127;28;87227;-90
2022/04/20 09:22:32;;;;;;;13.43;3.63;;;20.40;55.00;;;;;;5006873;28;87645;-84
2022/04/20 09:25:11;;;;;;;11.90;3.85;;;20.40;55.00;;;;;;5003530;28;86642;-87
2022/04/20 09:27:41;;;;;;;;;;;20.40;55.00;;;;;;5011145;28;87829;-88
2022/04/20 09:30:17;;;;;;;13.30;4.00;;;20.40;54.90;;;;;;5003349;28;87335;-83
2022/04/20 09:32:44;;;;;;;10.80;3.60;;;20.40;54.70;;;;;;5004244;28;88693;-84
2022/04/20 09:35:31;;;;;;;12.77;3.70;;;20.40;54.60;;;;;;5006653;28;88359;-85
2022/04/20 09:38:07;;;;;;;14.35;3.80;;;20.40;54.70;;;;;;5006825;28;87587;-89
2022/04/20 09:40:34;;;;;;;11.52;3.88;;;20.40;54.60;;;;;;5003924;28;87261;-89
2022/04/20 09:43:03;;;;;;;12.98;4.13;;;20.40;54.30;;;;;;5006219;28;88081;-84
2022/04/20 09:45:29;;;;;;;11.75;3.50;;;20.40;54.40;;;;;;5005258;28;87810;-88
2022/04/20 09:50:50;;;;;;;9.65;3.45;;;20.40;54.20;;;;;;5005303;28;86306;-89
2022/04/20 09:53:16;;;;;;;12.07;3.60;;;20.50;54.40;;;;;;5002874;28;88159;-88
2022/04/20 09:55:42;;;;;;;11.50;3.38;;;20.50;54.50;;;;;;5020239;28;90641;-86
2022/04/20 09:58:18;;;;;;;13.90;3.72;;;20.50;55.10;;;;;;5004898;28;88834;-90
2022/04/20 10:00:48;;;;;;;12.98;3.72;;;20.50;55.10;;;;;;5004719;28;88121;-90
2022/04/20 10:03:31;;;;;;;13.18;4.10;;;20.50;55.10;;;;;;5002249;28;87777;-90
2022/04/20 10:05:58;;;;;;;12.40;3.65;;;20.50;55.30;;;;;;5003453;28;87839;-86
2022/04/20 10:08:33;;;;;;;8.52;4.10;;;20.50;55.20;;;;;;5006952;28;87892;-90
2022/04/20 10:10:58;;;;;;;7.88;3.03;;;20.50;56.10;;;;;;5004012;28;87643;-87
2022/04/20 10:13:27;;;;;;;10.63;3.72;;;20.50;55.40;;;;;;5004816;28;88237;-88
2022/04/20 10:16:06;;;;;;;14.05;3.60;;;20.50;55.30;;;;;;5007104;28;87447;-87
2022/04/20 10:18:40;;;;;;;11.98;3.65;;;20.50;55.60;;;;;;5006929;28;87426;-87
2022/04/20 10:21:11;;;;;;;15.75;3.47;;;20.50;55.80;;;;;;5005763;28;90108;-90
2022/04/20 10:23:40;;;;;;;23.85;3.70;;;20.50;56.10;;;;;;5006060;28;88630;-90
2022/04/20 10:26:07;;;;;;;;;;;20.50;56.10;;;;;;5006795;28;88487;-90
2022/04/20 10:28:47;;;;;;;16.88;4.63;;;20.60;56.30;;;;;;5008051;28;87035;-87
2022/04/20 10:31:30;;;;;;;11.93;3.72;;;20.60;56.50;;;;;;5020447;28;87790;-89
2022/04/20 10:33:56;;;;;;;10.52;2.85;;;20.60;56.60;;;;;;5003247;28;87866;-87
2022/04/20 10:36:33;;;;;;;9.43;3.17;;;20.60;57.00;;;;;;4994395;28;89937;-87
2022/04/20 10:39:29;;;;;;;15.45;3.35;;;20.60;56.70;;;;;;4999038;28;87419;-86
2022/04/20 10:42:15;;;;;;;11.70;3.72;;;20.60;56.90;;;;;;5001124;28;86721;-86
2022/04/20 10:45:05;;;;;;;13.57;3.33;;;20.60;56.70;;;;;;5001653;28;87742;-90
2022/04/20 10:47:32;;;;;;;;;;;20.60;56.80;;;;;;5018736;28;90224;-89
2022/04/20 10:50:14;;;;;;;10.48;3.50;;;20.60;56.60;;;;;;5004977;28;88291;-82
2022/04/20 10:52:42;;;;;;;10.05;3.38;;;20.60;56.30;;;;;;5004110;28;87353;-87
2022/04/20 10:55:11;;;;;;;12.73;2.95;;;20.60;56.60;;;;;;5007127;28;87896;-91
2022/04/20 10:57:37;;;;;;;;;;;20.60;56.20;;;;;;5014623;28;89633;-91
2022/04/20 11:00:19;;;;;;;10.38;3.30;;;20.60;55.40;;;;;;5008490;28;87753;-86
2022/04/20 11:02:51;;;;;;;9.50;2.97;;;20.60;55.90;;;;;;5005311;28;88021;-89
2022/04/20 11:05:24;;;;;;;15.18;3.45;;;20.60;54.40;;;;;;5006889;28;87746;-92
2022/04/20 11:08:11;;;;;;;22.95;3.88;;;20.50;54.10;;;;;;5024112;28;90462;-90
2022/04/20 11:10:42;;;;;;;11.38;3.22;;;20.60;55.40;;;;;;5010686;28;86922;-88
2022/04/20 11:19:08;;;;;;;11.75;2.75;;;20.60;57.00;;;;;;5006530;28;87776;-87
2022/04/20 11:21:35;;;;;;;14.82;3.70;;;20.60;57.00;;;;;;5010551;28;87858;-91
2022/04/20 11:24:06;;;;;;;20.60;3.95;;;20.60;56.30;;;;;;5009146;28;87501;-88
2022/04/20 11:26:37;;;;;;;14.77;3.22;;;20.60;57.60;;;;;;5008125;28;87442;-88
2022/04/20 11:29:29;;;;;;;10.75;2.88;;;20.60;57.80;;;;;;5007369;28;88176;-90
2022/04/20 11:32:09;;;;;;;23.73;4.35;;;20.60;58.20;;;;;;5007460;28;87466;-86
2022/04/20 11:34:37;;;;;;;20.65;4.15;;;20.60;58.10;;;;;;5008208;28;87345;-87
2022/04/20 11:37:07;;;;;;;14.23;3.05;;;20.60;58.10;;;;;;5007159;28;87673;-86
2022/04/20 11:39:33;;;;;;;17.60;3.33;;;20.60;57.90;;;;;;5006424;28;87897;-85
2022/04/20 11:42:02;;;;;;;18.27;3.28;;;20.60;58.20;;;;;;5003579;28;88105;-89
2022/04/20 11:44:29;;;;;;;11.35;3.50;;;20.60;58.10;;;;;;5006428;28;87298;-87
2022/04/20 11:47:03;;;;;;;12.35;3.17;;;20.60;57.90;;;;;;5005734;28;87943;-82
2022/04/20 11:49:33;;;;;;;15.40;3.40;;;20.60;58.80;;;;;;5004878;28;87704;-88
2022/04/20 11:51:59;;;;;;;38.58;3.83;;;20.70;58.40;;;;;;5003042;28;87346;-88
2022/04/20 11:54:30;;;;;;;19.50;3.47;;;20.70;59.90;;;;;;5001513;28;87790;-88
2022/04/20 11:56:56;;;;;;;15.38;3.28;;;20.70;59.40;;;;;;5003949;28;91148;-88
2022/04/20 11:59:24;;;;;;;14.15;3.03;;;20.60;60.10;;;;;;5001827;28;87773;-86
2022/04/20 12:01:50;;;;;;;18.70;3.40;;;20.70;59.80;;;;;;5002629;28;86959;-88
2022/04/20 12:04:21;;;;;;;21.27;4.40;;;20.70;60.20;;;;;;5000339;28;87839;-87
2022/04/20 12:06:52;;;;;;;15.23;3.40;;;20.70;60.20;;;;;;4999894;28;88923;-87
2022/04/20 12:09:54;;;;;;;12.85;3.25;;;20.70;60.40;;;;;;4989119;28;92081;-88
2022/04/20 12:12:20;;;;;;;17.77;3.13;;;20.60;60.40;;;;;;5012494;28;88035;-86
2022/04/20 12:14:46;;;;;;;15.35;3.67;;;20.60;60.50;;;;;;4997917;28;87904;-87
2022/04/20 12:17:14;;;;;;;17.42;3.47;;;20.60;60.40;;;;;;5006633;28;90175;-88
2022/04/20 12:19:41;;;;;;;9.60;3.10;;;20.70;61.10;;;;;;4995942;28;87279;-88
2022/04/20 12:22:09;;;;;;;13.05;3.78;;;20.70;60.90;;;;;;4999817;28;87658;-85
2022/04/20 12:24:36;;;;;;;21.45;3.90;;;20.60;60.80;;;;;;4998633;28;87284;-86
2022/04/20 12:27:03;;;;;;;20.70;3.67;;;20.60;60.90;;;;;;4999737;28;87995;-89
2022/04/20 12:29:33;;;;;;;19.27;3.25;;;20.70;60.50;;;;;;4998290;28;87981;-87
2022/04/20 12:32:00;;;;;;;11.10;2.65;;;20.70;60.30;;;;;;4995072;28;88750;-88
2022/04/20 12:34:29;;;;;;;14.30;3.35;;;20.70;61.40;;;;;;4990544;28;89729;-87
2022/04/20 12:37:03;;;;;;;15.60;3.38;;;20.70;59.90;;;;;;5000764;28;88085;-85
2022/04/20 12:39:44;;;;;;;13.05;3.42;;;20.70;60.00;;;;;;5001017;28;87749;-87
2022/04/20 12:42:14;;;;;;;16.83;3.03;;;20.70;60.80;;;;;;4997098;28;87705;-86
2022/04/20 12:44:51;;;;;;;20.73;4.10;;;20.70;60.70;;;;;;4989997;28;88940;-88
2022/04/20 12:47:17;;;;;;;9.32;2.75;;;20.70;60.90;;;;;;5002242;28;88729;-87
2022/04/20 12:49:45;;;;;;;15.73;3.65;;;20.70;60.20;;;;;;5004285;28;87147;-86
2022/04/20 12:52:24;;;;;;;20.63;4.00;;;20.70;59.40;;;;;;4998304;28;87687;-86
2022/04/20 12:54:57;;;;;;;20.85;3.25;;;20.70;58.70;;;;;;4998480;28;89423;-86
2022/04/20 13:03:04;;;;;;;15.73;3.45;;;20.70;58.70;;;;;;4999702;28;87354;-87
2022/04/20 13:05:37;;;;;;;16.73;3.40;;;20.70;58.00;;;;;;4998945;28;87873;-87
2022/04/20 13:08:04;;;;;;;13.48;3.58;;;20.70;58.00;;;;;;4996838;28;88527;-83
2022/04/20 13:10:31;;;;;;;21.08;3.40;;;20.70;57.30;;;;;;5001596;28;87354;-86
2022/04/20 13:12:57;;;;;;;13.70;3.80;;;20.70;58.00;;;;;;5003510;28;86995;-85
2022/04/20 13:15:25;;;;;;;17.92;4.13;;;20.70;58.40;;;;;;4979027;28;86974;-86
2022/04/20 13:17:51;;;;;;;8.35;3.50;;;20.70;58.70;;;;;;5004681;28;88194;-87
2022/04/20 13:20:18;;;;;;;12.43;3.72;;;20.70;57.70;;;;;;5020622;28;87778;-88
2022/04/20 13:22:45;;;;;;;14.18;3.97;;;20.70;58.10;;;;;;5002973;28;88401;-87
2022/04/20 13:27:55;;;;;;;14.80;3.50;;;20.70;58.00;;;;;;4999621;28;87662;-82